sensor_id;sensor_type;location;lat;lon;timestamp;P1;durP1;ratioP1;P2;durP2;ratioP2
66739;SDS011;53653;52.188;8.602;2022-10-16T00:01:08;8.37;;;3.43;;
66739;SDS011;53653;52.188;8.602;2022-10-16T00:03:36;8.18;;;3.28;;
66739;SDS011;53653;52.188;8.602;2022-10-16T00:06:02;11.50;;;4.63;;
66739;SDS011;53653;52.188;8.602;2022-10-16T00:08:28;10.18;;;4.00;;
66739;SDS011;53653;52.188;8.602;2022-10-16T00:11:10;9.40;;;4.00;;
66739;SDS011;53653;52.188;8.602;2022-10-16T00:13:38;11.37;;;4.33;;
66739;SDS011;53653;52.188;8.602;2022-10-16T00:16:07;10.85;;;4.30;;
66739;SDS011;53653;52.188;8.602;2022-10-16T00:18:33;11.48;;;4.00;;
66739;SDS011;53653;52.188;8.602;2022-10-16T00:21:06;8.60;;;3.92;;
66739;SDS011;53653;52.188;8.602;2022-10-16T00:24:00;11.53;;;4.33;;
66739;SDS011;53653;52.188;8.602;2022-10-16T00:26:25;10.60;;;4.25;;
66739;SDS011;53653;52.188;8.602;2022-10-16T00:28:53;9.80;;;4.10;;
66739;SDS011;53653;52.188;8.602;2022-10-16T00:31:20;9.00;;;3.87;;
66739;SDS011;53653;52.188;8.602;2022-10-16T00:33:48;8.32;;;4.03;;
66739;SDS011;53653;52.188;8.602;2022-10-16T00:36:16;9.15;;;3.80;;
66739;SDS011;53653;52.188;8.602;2022-10-16T00:38:45;9.25;;;4.18;;
66739;SDS011;53653;52.188;8.602;2022-10-16T00:41:11;10.67;;;3.90;;
66739;SDS011;53653;52.188;8.602;2022-10-16T00:43:45;7.68;;;3.65;;
66739;SDS011;53653;52.188;8.602;2022-10-16T00:48:44;10.25;;;3.92;;
66739;SDS011;53653;52.188;8.602;2022-10-16T00:51:13;14.55;;;4.10;;
66739;SDS011;53653;52.188;8.602;2022-10-16T00:53:40;10.27;;;4.00;;
66739;SDS011;53653;52.188;8.602;2022-10-16T00:56:06;10.03;;;3.60;;
66739;SDS011;53653;52.188;8.602;2022-10-16T00:58:33;10.80;;;3.63;;
66739;SDS011;53653;52.188;8.602;2022-10-16T01:00:59;7.85;;;3.60;;
66739;SDS011;53653;52.188;8.602;2022-10-16T01:03:35;11.20;;;3.67;;
66739;SDS011;53653;52.188;8.602;2022-10-16T01:06:22;9.33;;;3.70;;
66739;SDS011;53653;52.188;8.602;2022-10-16T01:11:24;11.00;;;3.80;;
66739;SDS011;53653;52.188;8.602;2022-10-16T01:13:58;9.70;;;3.67;;
66739;SDS011;53653;52.188;8.602;2022-10-16T01:16:34;10.82;;;3.97;;
66739;SDS011;53653;52.188;8.602;2022-10-16T01:19:14;12.07;;;4.72;;
66739;SDS011;53653;52.188;8.602;2022-10-16T01:21:57;11.65;;;4.07;;
66739;SDS011;53653;52.188;8.602;2022-10-16T01:24:27;12.37;;;4.20;;
66739;SDS011;53653;52.188;8.602;2022-10-16T01:30:13;9.88;;;4.00;;
66739;SDS011;53653;52.188;8.602;2022-10-16T01:32:55;11.05;;;4.10;;
66739;SDS011;53653;52.188;8.602;2022-10-16T01:35:30;11.85;;;4.45;;
66739;SDS011;53653;52.188;8.602;2022-10-16T01:41:09;15.63;;;4.55;;
66739;SDS011;53653;52.188;8.602;2022-10-16T01:43:56;11.20;;;4.65;;
66739;SDS011;53653;52.188;8.602;2022-10-16T01:46:25;13.40;;;4.80;;
66739;SDS011;53653;52.188;8.602;2022-10-16T01:48:52;14.88;;;4.70;;
66739;SDS011;53653;52.188;8.602;2022-10-16T01:51:20;9.90;;;4.20;;
66739;SDS011;53653;52.188;8.602;2022-10-16T01:53:49;8.82;;;4.22;;
66739;SDS011;53653;52.188;8.602;2022-10-16T01:56:18;10.88;;;4.20;;
66739;SDS011;53653;52.188;8.602;2022-10-16T01:59:32;10.13;;;4.88;;
66739;SDS011;53653;52.188;8.602;2022-10-16T02:01:40;9.75;;;4.35;;
66739;SDS011;53653;52.188;8.602;2022-10-16T02:04:21;9.70;;;4.60;;
66739;SDS011;53653;52.188;8.602;2022-10-16T02:06:53;11.70;;;4.93;;
66739;SDS011;53653;52.188;8.602;2022-10-16T02:09:23;10.98;;;4.72;;
66739;SDS011;53653;52.188;8.602;2022-10-16T02:11:48;12.55;;;4.95;;
66739;SDS011;53653;52.188;8.602;2022-10-16T02:14:21;11.02;;;5.20;;
66739;SDS011;53653;52.188;8.602;2022-10-16T02:16:49;14.03;;;4.57;;
66739;SDS011;53653;52.188;8.602;2022-10-16T02:19:15;13.35;;;4.78;;
66739;SDS011;53653;52.188;8.602;2022-10-16T02:21:49;13.75;;;6.15;;
66739;SDS011;53653;52.188;8.602;2022-10-16T02:32:56;13.85;;;5.47;;
66739;SDS011;53653;52.188;8.602;2022-10-16T02:35:23;13.57;;;5.68;;
66739;SDS011;53653;52.188;8.602;2022-10-16T02:37:50;12.75;;;5.35;;
66739;SDS011;53653;52.188;8.602;2022-10-16T02:40:17;14.90;;;6.18;;
66739;SDS011;53653;52.188;8.602;2022-10-16T02:42:43;14.30;;;5.67;;
66739;SDS011;53653;52.188;8.602;2022-10-16T02:45:09;14.63;;;6.03;;
66739;SDS011;53653;52.188;8.602;2022-10-16T02:47:35;12.40;;;6.40;;
66739;SDS011;53653;52.188;8.602;2022-10-16T02:50:01;15.57;;;5.93;;
66739;SDS011;53653;52.188;8.602;2022-10-16T02:52:26;14.97;;;6.20;;
66739;SDS011;53653;52.188;8.602;2022-10-16T02:54:52;13.05;;;6.47;;
66739;SDS011;53653;52.188;8.602;2022-10-16T02:57:17;13.20;;;6.57;;
66739;SDS011;53653;52.188;8.602;2022-10-16T02:59:43;13.07;;;6.43;;
66739;SDS011;53653;52.188;8.602;2022-10-16T03:02:09;12.60;;;6.30;;
66739;SDS011;53653;52.188;8.602;2022-10-16T03:04:35;15.45;;;7.10;;
66739;SDS011;53653;52.188;8.602;2022-10-16T03:07:00;13.00;;;6.20;;
66739;SDS011;53653;52.188;8.602;2022-10-16T03:09:26;13.20;;;6.88;;
66739;SDS011;53653;52.188;8.602;2022-10-16T03:11:52;14.70;;;6.93;;
66739;SDS011;53653;52.188;8.602;2022-10-16T03:14:17;12.73;;;6.77;;
66739;SDS011;53653;52.188;8.602;2022-10-16T03:16:42;17.23;;;6.13;;
66739;SDS011;53653;52.188;8.602;2022-10-16T03:19:08;13.05;;;6.43;;
66739;SDS011;53653;52.188;8.602;2022-10-16T03:21:33;14.40;;;6.27;;
66739;SDS011;53653;52.188;8.602;2022-10-16T03:23:59;14.97;;;6.73;;
66739;SDS011;53653;52.188;8.602;2022-10-16T03:26:24;13.73;;;6.83;;
66739;SDS011;53653;52.188;8.602;2022-10-16T03:28:49;16.07;;;7.17;;
66739;SDS011;53653;52.188;8.602;2022-10-16T03:31:15;13.17;;;6.53;;
66739;SDS011;53653;52.188;8.602;2022-10-16T03:33:40;14.53;;;6.03;;
66739;SDS011;53653;52.188;8.602;2022-10-16T03:36:05;14.17;;;6.57;;
66739;SDS011;53653;52.188;8.602;2022-10-16T03:38:31;14.27;;;6.18;;
66739;SDS011;53653;52.188;8.602;2022-10-16T03:40:57;15.00;;;6.35;;
66739;SDS011;53653;52.188;8.602;2022-10-16T03:43:22;16.23;;;6.77;;
66739;SDS011;53653;52.188;8.602;2022-10-16T03:45:49;14.60;;;6.40;;
66739;SDS011;53653;52.188;8.602;2022-10-16T03:48:16;14.30;;;5.80;;
66739;SDS011;53653;52.188;8.602;2022-10-16T03:50:42;16.77;;;6.78;;
66739;SDS011;53653;52.188;8.602;2022-10-16T03:53:08;13.23;;;6.27;;
66739;SDS011;53653;52.188;8.602;2022-10-16T03:55:34;14.23;;;6.10;;
66739;SDS011;53653;52.188;8.602;2022-10-16T03:57:59;15.93;;;6.20;;
66739;SDS011;53653;52.188;8.602;2022-10-16T04:00:25;14.00;;;5.80;;
66739;SDS011;53653;52.188;8.602;2022-10-16T04:02:51;14.30;;;5.60;;
66739;SDS011;53653;52.188;8.602;2022-10-16T04:05:17;12.57;;;6.35;;
66739;SDS011;53653;52.188;8.602;2022-10-16T04:07:42;14.15;;;6.03;;
66739;SDS011;53653;52.188;8.602;2022-10-16T04:10:07;15.37;;;5.90;;
66739;SDS011;53653;52.188;8.602;2022-10-16T04:12:33;15.90;;;5.93;;
66739;SDS011;53653;52.188;8.602;2022-10-16T04:14:58;13.60;;;5.93;;
66739;SDS011;53653;52.188;8.602;2022-10-16T04:17:24;11.57;;;5.30;;
66739;SDS011;53653;52.188;8.602;2022-10-16T04:19:49;12.40;;;5.33;;
66739;SDS011;53653;52.188;8.602;2022-10-16T04:22:15;11.03;;;5.37;;
66739;SDS011;53653;52.188;8.602;2022-10-16T04:24:40;10.93;;;5.30;;
66739;SDS011;53653;52.188;8.602;2022-10-16T04:27:05;13.03;;;5.47;;
66739;SDS011;53653;52.188;8.602;2022-10-16T04:29:31;12.93;;;5.57;;
66739;SDS011;53653;52.188;8.602;2022-10-16T04:31:56;14.00;;;5.40;;
66739;SDS011;53653;52.188;8.602;2022-10-16T04:34:22;13.73;;;5.70;;
66739;SDS011;53653;52.188;8.602;2022-10-16T04:36:47;11.67;;;5.07;;
66739;SDS011;53653;52.188;8.602;2022-10-16T04:39:16;11.07;;;5.03;;
66739;SDS011;53653;52.188;8.602;2022-10-16T04:41:41;11.30;;;5.80;;
66739;SDS011;53653;52.188;8.602;2022-10-16T04:44:07;11.73;;;4.70;;
66739;SDS011;53653;52.188;8.602;2022-10-16T04:46:33;14.05;;;4.85;;
66739;SDS011;53653;52.188;8.602;2022-10-16T04:48:58;11.93;;;5.30;;
66739;SDS011;53653;52.188;8.602;2022-10-16T04:51:24;13.63;;;5.37;;
66739;SDS011;53653;52.188;8.602;2022-10-16T04:53:50;11.32;;;5.20;;
66739;SDS011;53653;52.188;8.602;2022-10-16T04:56:16;13.17;;;4.67;;
66739;SDS011;53653;52.188;8.602;2022-10-16T04:58:41;11.15;;;4.65;;
66739;SDS011;53653;52.188;8.602;2022-10-16T05:01:06;12.40;;;5.20;;
66739;SDS011;53653;52.188;8.602;2022-10-16T05:03:32;11.53;;;5.20;;
66739;SDS011;53653;52.188;8.602;2022-10-16T05:05:57;10.77;;;5.07;;
66739;SDS011;53653;52.188;8.602;2022-10-16T05:08:23;9.30;;;4.70;;
66739;SDS011;53653;52.188;8.602;2022-10-16T05:10:48;10.63;;;4.27;;
66739;SDS011;53653;52.188;8.602;2022-10-16T05:13:14;10.00;;;4.03;;
66739;SDS011;53653;52.188;8.602;2022-10-16T05:15:40;8.93;;;3.70;;
66739;SDS011;53653;52.188;8.602;2022-10-16T05:18:06;8.80;;;3.70;;
66739;SDS011;53653;52.188;8.602;2022-10-16T05:20:33;7.20;;;3.28;;
66739;SDS011;53653;52.188;8.602;2022-10-16T05:22:59;8.85;;;3.40;;
66739;SDS011;53653;52.188;8.602;2022-10-16T05:25:24;7.87;;;3.50;;
66739;SDS011;53653;52.188;8.602;2022-10-16T05:27:50;11.23;;;3.33;;
66739;SDS011;53653;52.188;8.602;2022-10-16T05:30:16;9.13;;;4.15;;
66739;SDS011;53653;52.188;8.602;2022-10-16T05:32:45;10.53;;;4.40;;
66739;SDS011;53653;52.188;8.602;2022-10-16T05:35:16;7.72;;;3.78;;
66739;SDS011;53653;52.188;8.602;2022-10-16T05:37:42;7.00;;;3.30;;
66739;SDS011;53653;52.188;8.602;2022-10-16T05:40:08;9.53;;;3.60;;
66739;SDS011;53653;52.188;8.602;2022-10-16T05:42:34;9.38;;;3.40;;
66739;SDS011;53653;52.188;8.602;2022-10-16T05:44:59;7.20;;;3.40;;
66739;SDS011;53653;52.188;8.602;2022-10-16T05:47:25;8.40;;;3.92;;
66739;SDS011;53653;52.188;8.602;2022-10-16T05:49:50;6.93;;;3.00;;
66739;SDS011;53653;52.188;8.602;2022-10-16T05:52:16;9.68;;;3.20;;
66739;SDS011;53653;52.188;8.602;2022-10-16T05:54:42;8.00;;;3.00;;
66739;SDS011;53653;52.188;8.602;2022-10-16T05:57:08;7.78;;;2.90;;
66739;SDS011;53653;52.188;8.602;2022-10-16T05:59:34;8.07;;;2.63;;
66739;SDS011;53653;52.188;8.602;2022-10-16T06:01:59;10.57;;;3.78;;
66739;SDS011;53653;52.188;8.602;2022-10-16T06:04:25;7.30;;;3.20;;
66739;SDS011;53653;52.188;8.602;2022-10-16T06:06:50;7.30;;;2.90;;
66739;SDS011;53653;52.188;8.602;2022-10-16T06:09:15;5.53;;;2.55;;
66739;SDS011;53653;52.188;8.602;2022-10-16T06:11:41;6.30;;;2.70;;
66739;SDS011;53653;52.188;8.602;2022-10-16T06:14:07;5.80;;;2.60;;
66739;SDS011;53653;52.188;8.602;2022-10-16T06:16:34;6.03;;;2.30;;
66739;SDS011;53653;52.188;8.602;2022-10-16T06:19:01;6.25;;;3.17;;
66739;SDS011;53653;52.188;8.602;2022-10-16T06:21:29;7.20;;;3.40;;
66739;SDS011;53653;52.188;8.602;2022-10-16T06:23:55;6.53;;;2.97;;
66739;SDS011;53653;52.188;8.602;2022-10-16T06:26:22;8.32;;;2.90;;
66739;SDS011;53653;52.188;8.602;2022-10-16T06:28:49;7.17;;;3.03;;
66739;SDS011;53653;52.188;8.602;2022-10-16T06:31:15;6.65;;;2.95;;
66739;SDS011;53653;52.188;8.602;2022-10-16T06:33:41;5.90;;;2.70;;
66739;SDS011;53653;52.188;8.602;2022-10-16T06:36:08;6.83;;;2.83;;
66739;SDS011;53653;52.188;8.602;2022-10-16T06:38:35;6.18;;;2.25;;
66739;SDS011;53653;52.188;8.602;2022-10-16T06:41:02;7.75;;;2.72;;
66739;SDS011;53653;52.188;8.602;2022-10-16T06:43:28;7.20;;;2.40;;
66739;SDS011;53653;52.188;8.602;2022-10-16T06:45:58;5.45;;;2.22;;
66739;SDS011;53653;52.188;8.602;2022-10-16T06:48:24;5.10;;;2.00;;
66739;SDS011;53653;52.188;8.602;2022-10-16T06:51:04;6.15;;;1.95;;
66739;SDS011;53653;52.188;8.602;2022-10-16T06:53:38;5.43;;;2.03;;
66739;SDS011;53653;52.188;8.602;2022-10-16T06:56:09;5.05;;;2.00;;
66739;SDS011;53653;52.188;8.602;2022-10-16T06:58:39;7.10;;;2.05;;
66739;SDS011;53653;52.188;8.602;2022-10-16T07:01:05;10.10;;;1.90;;
66739;SDS011;53653;52.188;8.602;2022-10-16T07:03:31;5.28;;;1.80;;
66739;SDS011;53653;52.188;8.602;2022-10-16T07:05:56;6.13;;;1.90;;
66739;SDS011;53653;52.188;8.602;2022-10-16T07:08:26;4.85;;;1.75;;
66739;SDS011;53653;52.188;8.602;2022-10-16T07:10:57;5.50;;;1.80;;
66739;SDS011;53653;52.188;8.602;2022-10-16T07:13:24;5.40;;;2.10;;
66739;SDS011;53653;52.188;8.602;2022-10-16T07:15:50;6.03;;;1.85;;
66739;SDS011;53653;52.188;8.602;2022-10-16T07:18:15;4.87;;;1.70;;
66739;SDS011;53653;52.188;8.602;2022-10-16T07:20:41;4.40;;;1.60;;
66739;SDS011;53653;52.188;8.602;2022-10-16T07:23:06;6.93;;;1.60;;
66739;SDS011;53653;52.188;8.602;2022-10-16T07:25:32;4.55;;;1.65;;
66739;SDS011;53653;52.188;8.602;2022-10-16T07:27:57;5.37;;;1.77;;
66739;SDS011;53653;52.188;8.602;2022-10-16T07:30:22;4.77;;;1.60;;
66739;SDS011;53653;52.188;8.602;2022-10-16T07:32:51;5.23;;;1.67;;
66739;SDS011;53653;52.188;8.602;2022-10-16T07:35:16;5.13;;;1.80;;
66739;SDS011;53653;52.188;8.602;2022-10-16T07:37:45;4.93;;;1.57;;
66739;SDS011;53653;52.188;8.602;2022-10-16T07:40:11;7.25;;;1.63;;
66739;SDS011;53653;52.188;8.602;2022-10-16T07:42:37;5.20;;;1.60;;
66739;SDS011;53653;52.188;8.602;2022-10-16T07:45:03;5.13;;;1.57;;
66739;SDS011;53653;52.188;8.602;2022-10-16T07:47:28;5.35;;;1.70;;
66739;SDS011;53653;52.188;8.602;2022-10-16T07:49:54;5.17;;;1.87;;
66739;SDS011;53653;52.188;8.602;2022-10-16T07:52:19;7.30;;;1.73;;
66739;SDS011;53653;52.188;8.602;2022-10-16T07:54:44;6.25;;;1.60;;
66739;SDS011;53653;52.188;8.602;2022-10-16T07:57:10;5.53;;;1.60;;
66739;SDS011;53653;52.188;8.602;2022-10-16T07:59:35;5.80;;;2.07;;
66739;SDS011;53653;52.188;8.602;2022-10-16T08:02:01;5.87;;;1.40;;
66739;SDS011;53653;52.188;8.602;2022-10-16T08:04:26;5.32;;;1.63;;
66739;SDS011;53653;52.188;8.602;2022-10-16T08:06:51;6.33;;;1.60;;
66739;SDS011;53653;52.188;8.602;2022-10-16T08:09:19;4.78;;;1.50;;
66739;SDS011;53653;52.188;8.602;2022-10-16T08:11:44;5.20;;;1.30;;
66739;SDS011;53653;52.188;8.602;2022-10-16T08:14:10;4.30;;;1.40;;
66739;SDS011;53653;52.188;8.602;2022-10-16T08:16:35;5.03;;;1.23;;
66739;SDS011;53653;52.188;8.602;2022-10-16T08:19:01;6.15;;;1.40;;
66739;SDS011;53653;52.188;8.602;2022-10-16T08:21:26;5.53;;;1.37;;
66739;SDS011;53653;52.188;8.602;2022-10-16T08:23:52;7.07;;;1.90;;
66739;SDS011;53653;52.188;8.602;2022-10-16T08:26:18;6.30;;;1.67;;
66739;SDS011;53653;52.188;8.602;2022-10-16T08:28:44;4.97;;;1.60;;
66739;SDS011;53653;52.188;8.602;2022-10-16T08:33:36;5.90;;;1.75;;
66739;SDS011;53653;52.188;8.602;2022-10-16T08:36:03;8.65;;;1.83;;
66739;SDS011;53653;52.188;8.602;2022-10-16T08:38:29;7.93;;;1.80;;
66739;SDS011;53653;52.188;8.602;2022-10-16T08:40:55;5.00;;;1.70;;
66739;SDS011;53653;52.188;8.602;2022-10-16T08:43:40;5.60;;;1.83;;
66739;SDS011;53653;52.188;8.602;2022-10-16T08:47:22;6.15;;;2.22;;
66739;SDS011;53653;52.188;8.602;2022-10-16T08:49:25;5.25;;;2.30;;
66739;SDS011;53653;52.188;8.602;2022-10-16T08:51:51;5.47;;;2.00;;
66739;SDS011;53653;52.188;8.602;2022-10-16T08:54:26;5.82;;;1.88;;
66739;SDS011;53653;52.188;8.602;2022-10-16T08:56:54;6.78;;;2.60;;
66739;SDS011;53653;52.188;8.602;2022-10-16T08:59:21;5.80;;;1.92;;
66739;SDS011;53653;52.188;8.602;2022-10-16T09:01:47;5.83;;;1.70;;
66739;SDS011;53653;52.188;8.602;2022-10-16T09:09:58;5.80;;;1.50;;
66739;SDS011;53653;52.188;8.602;2022-10-16T09:15:27;5.53;;;1.60;;
66739;SDS011;53653;52.188;8.602;2022-10-16T09:18:00;5.97;;;1.70;;
66739;SDS011;53653;52.188;8.602;2022-10-16T09:23:19;5.37;;;1.80;;
66739;SDS011;53653;52.188;8.602;2022-10-16T09:25:50;7.07;;;1.90;;
66739;SDS011;53653;52.188;8.602;2022-10-16T09:28:16;5.25;;;1.80;;
66739;SDS011;53653;52.188;8.602;2022-10-16T09:30:43;5.35;;;2.05;;
66739;SDS011;53653;52.188;8.602;2022-10-16T09:33:09;5.30;;;1.88;;
66739;SDS011;53653;52.188;8.602;2022-10-16T09:35:40;5.77;;;1.93;;
66739;SDS011;53653;52.188;8.602;2022-10-16T09:38:08;5.15;;;1.70;;
66739;SDS011;53653;52.188;8.602;2022-10-16T09:40:45;6.57;;;1.77;;
66739;SDS011;53653;52.188;8.602;2022-10-16T09:43:24;6.20;;;1.53;;
66739;SDS011;53653;52.188;8.602;2022-10-16T09:46:00;4.97;;;1.45;;
66739;SDS011;53653;52.188;8.602;2022-10-16T09:48:29;4.38;;;1.63;;
66739;SDS011;53653;52.188;8.602;2022-10-16T09:51:00;6.00;;;1.50;;
66739;SDS011;53653;52.188;8.602;2022-10-16T09:53:48;7.65;;;1.45;;
66739;SDS011;53653;52.188;8.602;2022-10-16T09:56:23;5.03;;;1.60;;
66739;SDS011;53653;52.188;8.602;2022-10-16T09:58:53;6.45;;;1.70;;
66739;SDS011;53653;52.188;8.602;2022-10-16T10:01:21;5.57;;;1.80;;
66739;SDS011;53653;52.188;8.602;2022-10-16T10:03:50;6.53;;;1.73;;
66739;SDS011;53653;52.188;8.602;2022-10-16T10:06:27;5.82;;;1.70;;
66739;SDS011;53653;52.188;8.602;2022-10-16T10:09:05;5.20;;;1.50;;
66739;SDS011;53653;52.188;8.602;2022-10-16T10:19:29;5.88;;;1.67;;
66739;SDS011;53653;52.188;8.602;2022-10-16T10:22:02;5.23;;;1.77;;
66739;SDS011;53653;52.188;8.602;2022-10-16T10:24:40;4.60;;;1.65;;
66739;SDS011;53653;52.188;8.602;2022-10-16T10:27:11;7.03;;;1.80;;
66739;SDS011;53653;52.188;8.602;2022-10-16T10:42:57;5.93;;;1.60;;
66739;SDS011;53653;52.188;8.602;2022-10-16T10:45:43;7.38;;;1.67;;
66739;SDS011;53653;52.188;8.602;2022-10-16T10:50:52;8.45;;;1.50;;
66739;SDS011;53653;52.188;8.602;2022-10-16T10:59:24;6.85;;;1.50;;
66739;SDS011;53653;52.188;8.602;2022-10-16T11:01:55;6.18;;;1.50;;
66739;SDS011;53653;52.188;8.602;2022-10-16T11:07:15;6.23;;;1.67;;
66739;SDS011;53653;52.188;8.602;2022-10-16T11:09:51;4.93;;;1.50;;
66739;SDS011;53653;52.188;8.602;2022-10-16T11:12:25;5.38;;;1.80;;
66739;SDS011;53653;52.188;8.602;2022-10-16T11:17:33;5.07;;;1.85;;
66739;SDS011;53653;52.188;8.602;2022-10-16T11:23:11;5.25;;;1.40;;
66739;SDS011;53653;52.188;8.602;2022-10-16T11:26:03;4.88;;;1.63;;
66739;SDS011;53653;52.188;8.602;2022-10-16T11:28:42;4.80;;;1.70;;
66739;SDS011;53653;52.188;8.602;2022-10-16T11:34:34;7.10;;;1.70;;
66739;SDS011;53653;52.188;8.602;2022-10-16T11:39:31;6.68;;;1.85;;
66739;SDS011;53653;52.188;8.602;2022-10-16T11:50:38;6.32;;;1.90;;
66739;SDS011;53653;52.188;8.602;2022-10-16T11:53:12;5.93;;;2.10;;
66739;SDS011;53653;52.188;8.602;2022-10-16T11:55:50;6.03;;;2.00;;
66739;SDS011;53653;52.188;8.602;2022-10-16T11:58:34;5.50;;;2.00;;
66739;SDS011;53653;52.188;8.602;2022-10-16T12:06:31;7.05;;;2.10;;
66739;SDS011;53653;52.188;8.602;2022-10-16T12:09:02;6.60;;;1.70;;
66739;SDS011;53653;52.188;8.602;2022-10-16T12:16:38;6.85;;;1.95;;
66739;SDS011;53653;52.188;8.602;2022-10-16T12:19:16;6.73;;;1.50;;
66739;SDS011;53653;52.188;8.602;2022-10-16T12:21:43;5.15;;;1.60;;
66739;SDS011;53653;52.188;8.602;2022-10-16T12:27:06;6.15;;;1.73;;
66739;SDS011;53653;52.188;8.602;2022-10-16T12:30:02;6.22;;;1.95;;
66739;SDS011;53653;52.188;8.602;2022-10-16T12:32:34;5.43;;;1.93;;
66739;SDS011;53653;52.188;8.602;2022-10-16T12:35:02;7.53;;;1.83;;
66739;SDS011;53653;52.188;8.602;2022-10-16T12:37:36;7.05;;;1.85;;
66739;SDS011;53653;52.188;8.602;2022-10-16T12:40:12;7.28;;;2.00;;
66739;SDS011;53653;52.188;8.602;2022-10-16T12:42:41;5.70;;;1.90;;
66739;SDS011;53653;52.188;8.602;2022-10-16T12:45:40;17.73;;;2.47;;
66739;SDS011;53653;52.188;8.602;2022-10-16T12:47:59;6.15;;;1.83;;
66739;SDS011;53653;52.188;8.602;2022-10-16T12:50:36;5.43;;;1.70;;
66739;SDS011;53653;52.188;8.602;2022-10-16T12:53:16;4.80;;;1.67;;
66739;SDS011;53653;52.188;8.602;2022-10-16T12:56:03;6.53;;;1.67;;
66739;SDS011;53653;52.188;8.602;2022-10-16T13:04:47;5.30;;;1.67;;
66739;SDS011;53653;52.188;8.602;2022-10-16T13:07:41;5.50;;;1.58;;
66739;SDS011;53653;52.188;8.602;2022-10-16T13:10:25;6.13;;;1.60;;
66739;SDS011;53653;52.188;8.602;2022-10-16T13:21:12;4.75;;;1.02;;
66739;SDS011;53653;52.188;8.602;2022-10-16T13:29:29;5.65;;;1.40;;
66739;SDS011;53653;52.188;8.602;2022-10-16T13:31:59;4.50;;;1.30;;
66739;SDS011;53653;52.188;8.602;2022-10-16T13:34:26;7.88;;;1.33;;
66739;SDS011;53653;52.188;8.602;2022-10-16T13:36:53;4.63;;;1.35;;
66739;SDS011;53653;52.188;8.602;2022-10-16T13:39:29;3.55;;;1.02;;
66739;SDS011;53653;52.188;8.602;2022-10-16T13:42:37;4.07;;;1.20;;
66739;SDS011;53653;52.188;8.602;2022-10-16T13:44:49;4.95;;;1.33;;
66739;SDS011;53653;52.188;8.602;2022-10-16T13:47:17;4.70;;;1.50;;
66739;SDS011;53653;52.188;8.602;2022-10-16T13:49:44;4.72;;;1.38;;
66739;SDS011;53653;52.188;8.602;2022-10-16T13:52:19;4.95;;;1.50;;
66739;SDS011;53653;52.188;8.602;2022-10-16T13:54:45;4.60;;;1.60;;
66739;SDS011;53653;52.188;8.602;2022-10-16T13:57:14;6.75;;;1.38;;
66739;SDS011;53653;52.188;8.602;2022-10-16T13:59:41;4.97;;;1.60;;
66739;SDS011;53653;52.188;8.602;2022-10-16T14:02:26;5.50;;;1.50;;
66739;SDS011;53653;52.188;8.602;2022-10-16T14:04:56;5.72;;;1.38;;
66739;SDS011;53653;52.188;8.602;2022-10-16T14:07:26;5.45;;;1.80;;
66739;SDS011;53653;52.188;8.602;2022-10-16T14:09:53;7.72;;;1.70;;
66739;SDS011;53653;52.188;8.602;2022-10-16T14:12:20;5.10;;;1.70;;
66739;SDS011;53653;52.188;8.602;2022-10-16T14:14:47;4.77;;;1.40;;
66739;SDS011;53653;52.188;8.602;2022-10-16T14:17:19;6.18;;;1.60;;
66739;SDS011;53653;52.188;8.602;2022-10-16T14:19:57;4.88;;;1.40;;
66739;SDS011;53653;52.188;8.602;2022-10-16T14:22:31;5.43;;;1.58;;
66739;SDS011;53653;52.188;8.602;2022-10-16T14:24:58;5.00;;;1.40;;
66739;SDS011;53653;52.188;8.602;2022-10-16T14:30:14;5.50;;;1.50;;
66739;SDS011;53653;52.188;8.602;2022-10-16T14:32:40;5.15;;;1.30;;
66739;SDS011;53653;52.188;8.602;2022-10-16T14:35:30;6.55;;;1.60;;
66739;SDS011;53653;52.188;8.602;2022-10-16T14:37:58;6.07;;;1.40;;
66739;SDS011;53653;52.188;8.602;2022-10-16T14:40:26;5.43;;;1.60;;
66739;SDS011;53653;52.188;8.602;2022-10-16T14:42:57;5.05;;;1.50;;
66739;SDS011;53653;52.188;8.602;2022-10-16T14:45:24;4.68;;;1.60;;
66739;SDS011;53653;52.188;8.602;2022-10-16T14:47:55;6.75;;;1.50;;
66739;SDS011;53653;52.188;8.602;2022-10-16T14:50:23;5.03;;;1.50;;
66739;SDS011;53653;52.188;8.602;2022-10-16T14:52:49;4.70;;;1.50;;
66739;SDS011;53653;52.188;8.602;2022-10-16T14:55:15;4.55;;;1.70;;
66739;SDS011;53653;52.188;8.602;2022-10-16T14:57:42;6.60;;;1.70;;
66739;SDS011;53653;52.188;8.602;2022-10-16T15:00:19;4.53;;;1.67;;
66739;SDS011;53653;52.188;8.602;2022-10-16T15:02:47;6.97;;;2.20;;
66739;SDS011;53653;52.188;8.602;2022-10-16T15:07:47;8.80;;;2.90;;
66739;SDS011;53653;52.188;8.602;2022-10-16T15:10:18;6.03;;;3.13;;
66739;SDS011;53653;52.188;8.602;2022-10-16T15:12:44;10.98;;;5.13;;
66739;SDS011;53653;52.188;8.602;2022-10-16T15:17:48;12.75;;;5.60;;
66739;SDS011;53653;52.188;8.602;2022-10-16T15:20:18;10.43;;;4.95;;
66739;SDS011;53653;52.188;8.602;2022-10-16T15:22:44;10.30;;;4.20;;
66739;SDS011;53653;52.188;8.602;2022-10-16T15:27:52;7.55;;;4.32;;
66739;SDS011;53653;52.188;8.602;2022-10-16T15:30:42;14.83;;;7.87;;
66739;SDS011;53653;52.188;8.602;2022-10-16T15:33:14;8.80;;;4.35;;
66739;SDS011;53653;52.188;8.602;2022-10-16T15:35:41;10.05;;;5.40;;
66739;SDS011;53653;52.188;8.602;2022-10-16T15:38:14;10.50;;;5.30;;
66739;SDS011;53653;52.188;8.602;2022-10-16T15:40:40;7.97;;;3.55;;
66739;SDS011;53653;52.188;8.602;2022-10-16T15:43:06;6.20;;;2.80;;
66739;SDS011;53653;52.188;8.602;2022-10-16T15:45:32;6.40;;;3.10;;
66739;SDS011;53653;52.188;8.602;2022-10-16T15:47:57;5.90;;;3.47;;
66739;SDS011;53653;52.188;8.602;2022-10-16T15:50:23;9.10;;;4.32;;
66739;SDS011;53653;52.188;8.602;2022-10-16T15:52:49;10.50;;;4.33;;
66739;SDS011;53653;52.188;8.602;2022-10-16T15:55:16;10.48;;;4.20;;
66739;SDS011;53653;52.188;8.602;2022-10-16T15:57:43;6.95;;;3.85;;
66739;SDS011;53653;52.188;8.602;2022-10-16T16:00:10;6.45;;;3.83;;
66739;SDS011;53653;52.188;8.602;2022-10-16T16:02:38;7.00;;;4.00;;
66739;SDS011;53653;52.188;8.602;2022-10-16T16:05:05;8.88;;;4.15;;
66739;SDS011;53653;52.188;8.602;2022-10-16T16:07:36;8.55;;;4.07;;
66739;SDS011;53653;52.188;8.602;2022-10-16T16:10:03;6.70;;;3.80;;
66739;SDS011;53653;52.188;8.602;2022-10-16T16:12:30;7.53;;;4.47;;
66739;SDS011;53653;52.188;8.602;2022-10-16T16:14:55;7.07;;;4.33;;
66739;SDS011;53653;52.188;8.602;2022-10-16T16:17:21;7.00;;;4.17;;
66739;SDS011;53653;52.188;8.602;2022-10-16T16:19:46;8.93;;;4.10;;
66739;SDS011;53653;52.188;8.602;2022-10-16T16:22:12;7.45;;;3.80;;
66739;SDS011;53653;52.188;8.602;2022-10-16T16:24:37;7.67;;;3.97;;
66739;SDS011;53653;52.188;8.602;2022-10-16T16:27:03;12.45;;;4.22;;
66739;SDS011;53653;52.188;8.602;2022-10-16T16:29:28;7.93;;;4.27;;
66739;SDS011;53653;52.188;8.602;2022-10-16T16:31:53;11.43;;;4.83;;
66739;SDS011;53653;52.188;8.602;2022-10-16T16:34:23;8.18;;;4.60;;
66739;SDS011;53653;52.188;8.602;2022-10-16T16:36:52;11.02;;;5.53;;
66739;SDS011;53653;52.188;8.602;2022-10-16T16:39:18;10.53;;;5.90;;
66739;SDS011;53653;52.188;8.602;2022-10-16T16:41:44;10.75;;;5.60;;
66739;SDS011;53653;52.188;8.602;2022-10-16T16:44:12;11.32;;;6.25;;
66739;SDS011;53653;52.188;8.602;2022-10-16T16:46:40;11.02;;;6.45;;
66739;SDS011;53653;52.188;8.602;2022-10-16T16:49:08;17.08;;;5.50;;
66739;SDS011;53653;52.188;8.602;2022-10-16T16:51:37;11.73;;;6.20;;
66739;SDS011;53653;52.188;8.602;2022-10-16T16:54:03;12.55;;;7.35;;
66739;SDS011;53653;52.188;8.602;2022-10-16T16:56:29;15.47;;;6.87;;
66739;SDS011;53653;52.188;8.602;2022-10-16T16:58:54;10.88;;;6.28;;
66739;SDS011;53653;52.188;8.602;2022-10-16T17:01:22;10.73;;;5.90;;
66739;SDS011;53653;52.188;8.602;2022-10-16T17:03:50;8.45;;;5.13;;
66739;SDS011;53653;52.188;8.602;2022-10-16T17:06:18;11.85;;;6.05;;